createdAt,value
2023-03-26T00:02:06.343Z,14.00
2023-03-26T00:04:38.375Z,11.57
2023-03-26T00:07:05.661Z,11.40
2023-03-26T00:09:39.017Z,12.52
2023-03-26T00:12:06.436Z,11.88
2023-03-26T00:14:35.362Z,12.02
2023-03-26T00:17:04.307Z,10.90
2023-03-26T00:19:33.900Z,11.07
2023-03-26T00:22:03.579Z,13.88
2023-03-26T00:24:31.051Z,11.15
2023-03-26T00:26:59.650Z,15.90
2023-03-26T00:29:28.157Z,11.77
2023-03-26T00:31:55.565Z,11.45
2023-03-26T00:34:23.529Z,11.50
2023-03-26T00:36:55.189Z,11.55
2023-03-26T00:39:33.650Z,12.90
2023-03-26T00:42:06.977Z,12.18
2023-03-26T00:44:35.822Z,10.93
2023-03-26T00:47:03.685Z,11.48
2023-03-26T00:49:32.015Z,12.68
2023-03-26T00:51:59.315Z,11.57
2023-03-26T00:54:27.104Z,10.70
2023-03-26T00:56:56.022Z,11.32
2023-03-26T00:59:23.690Z,12.20
2023-03-26T01:01:55.065Z,9.13
2023-03-26T01:04:31.793Z,10.68
2023-03-26T01:07:10.616Z,11.65
2023-03-26T01:09:50.347Z,12.48
2023-03-26T01:12:31.884Z,12.63
2023-03-26T01:15:02.321Z,9.65
2023-03-26T01:17:34.217Z,10.63
2023-03-26T01:20:38.849Z,12.18
2023-03-26T01:23:08.837Z,9.75
2023-03-26T01:25:51.200Z,11.00
2023-03-26T01:28:20.142Z,11.95
2023-03-26T01:31:48.177Z,10.60
2023-03-26T01:35:18.444Z,10.88
2023-03-26T01:38:26.164Z,9.80
2023-03-26T01:41:31.170Z,11.02
2023-03-26T01:44:17.122Z,9.77
2023-03-26T01:46:47.685Z,9.82
2023-03-26T01:49:15.334Z,9.75
2023-03-26T01:51:43.280Z,10.13
2023-03-26T01:54:22.837Z,9.95
2023-03-26T01:57:23.766Z,7.97
2023-03-26T02:00:18.414Z,11.32
2023-03-26T02:03:24.686Z,8.05
2023-03-26T02:06:23.639Z,10.07
2023-03-26T02:09:05.780Z,11.65
2023-03-26T02:11:36.076Z,12.70
2023-03-26T02:14:08.313Z,10.60
2023-03-26T02:16:35.842Z,9.52
2023-03-26T02:19:05.078Z,9.02
2023-03-26T02:21:34.122Z,10.38
2023-03-26T02:24:05.153Z,8.48
2023-03-26T02:26:37.782Z,8.25
2023-03-26T02:29:20.290Z,10.15
2023-03-26T02:31:49.639Z,10.68
2023-03-26T02:34:17.652Z,8.57
2023-03-26T02:36:53.315Z,9.15
2023-03-26T02:39:21.387Z,9.05
2023-03-26T02:41:59.588Z,8.32
2023-03-26T02:44:29.726Z,9.10
2023-03-26T02:46:59.900Z,8.05
2023-03-26T02:49:51.681Z,8.15
2023-03-26T02:52:37.038Z,7.88
2023-03-26T02:55:07.380Z,9.73
2023-03-26T02:57:35.719Z,8.90
2023-03-26T03:00:17.112Z,9.00
2023-03-26T03:03:06.652Z,7.80
2023-03-26T03:05:56.363Z,7.25
2023-03-26T03:08:34.109Z,9.40
2023-03-26T03:11:22.062Z,9.73
2023-03-26T03:13:52.338Z,8.00
2023-03-26T03:16:25.767Z,7.97
2023-03-26T03:18:57.802Z,8.63
2023-03-26T03:21:32.427Z,7.70
2023-03-26T03:24:00.168Z,7.07
2023-03-26T03:26:31.664Z,7.43
2023-03-26T03:29:09.358Z,8.40
2023-03-26T03:31:36.695Z,7.85
2023-03-26T03:34:06.408Z,9.18
2023-03-26T03:36:41.210Z,10.35
2023-03-26T03:39:19.776Z,8.60
2023-03-26T03:41:49.324Z,8.82
2023-03-26T03:44:17.682Z,9.55
2023-03-26T03:46:45.512Z,9.63
2023-03-26T03:49:14.135Z,7.75
2023-03-26T03:51:42.566Z,8.43
2023-03-26T03:54:22.658Z,7.68
2023-03-26T03:57:12.202Z,7.05
2023-03-26T03:59:47.802Z,8.52
2023-03-26T04:02:30.661Z,7.53
2023-03-26T04:05:04.458Z,10.60
2023-03-26T04:07:34.062Z,7.07
2023-03-26T04:10:10.363Z,8.25
2023-03-26T04:13:03.752Z,6.68
2023-03-26T04:15:59.522Z,7.13
2023-03-26T04:18:32.372Z,7.05
2023-03-26T04:21:07.846Z,7.97
2023-03-26T04:23:38.242Z,7.50
2023-03-26T04:26:24.452Z,6.68
2023-03-26T04:29:17.304Z,7.82
2023-03-26T04:31:47.245Z,7.50
2023-03-26T04:34:26.313Z,6.43
2023-03-26T04:37:07.175Z,7.68
2023-03-26T04:39:41.823Z,7.45
2023-03-26T04:42:29.656Z,6.90
2023-03-26T04:45:17.984Z,7.85
2023-03-26T04:47:50.277Z,7.95
2023-03-26T04:50:18.115Z,8.70
2023-03-26T04:52:45.996Z,7.35
2023-03-26T04:55:47.164Z,7.10
2023-03-26T04:58:30.256Z,6.70
2023-03-26T05:01:11.158Z,6.70
2023-03-26T05:03:45.851Z,6.07
2023-03-26T05:06:17.673Z,7.22
2023-03-26T05:08:46.297Z,8.68
2023-03-26T05:11:30.857Z,7.68
2023-03-26T05:13:58.530Z,6.85
2023-03-26T05:16:28.725Z,7.53
2023-03-26T05:19:01.063Z,7.85
2023-03-26T05:21:40.832Z,7.20
2023-03-26T05:24:08.435Z,9.50
2023-03-26T05:26:38.611Z,6.40
2023-03-26T05:29:06.713Z,7.28
2023-03-26T05:31:42.761Z,7.72
2023-03-26T05:34:11.460Z,7.38
2023-03-26T05:36:38.942Z,8.35
2023-03-26T05:39:27.379Z,6.57
2023-03-26T05:42:12.721Z,7.47
2023-03-26T05:45:15.021Z,6.40
2023-03-26T05:47:50.168Z,9.52
2023-03-26T05:50:17.971Z,7.35
2023-03-26T05:52:49.498Z,6.45
2023-03-26T05:55:35.626Z,6.50
2023-03-26T05:58:29.653Z,7.72
2023-03-26T06:01:19.656Z,6.25
2023-03-26T06:04:19.086Z,7.53
2023-03-26T06:07:23.446Z,7.55
2023-03-26T06:10:11.383Z,7.25
2023-03-26T06:13:03.482Z,6.45
2023-03-26T06:15:32.200Z,9.10
2023-03-26T06:18:15.387Z,8.45
2023-03-26T06:21:02.489Z,7.28
2023-03-26T06:23:42.763Z,7.82
2023-03-26T06:26:31.241Z,6.82
2023-03-26T06:29:20.220Z,7.13
2023-03-26T06:32:12.399Z,8.07
2023-03-26T06:34:59.451Z,8.85
2023-03-26T06:37:28.593Z,8.63
2023-03-26T06:40:15.963Z,6.97
2023-03-26T06:43:09.226Z,6.85
2023-03-26T06:46:02.780Z,7.55
2023-03-26T06:48:59.745Z,6.45
2023-03-26T06:51:44.086Z,9.82
2023-03-26T06:54:30.827Z,7.70
2023-03-26T06:57:08.579Z,8.90
2023-03-26T06:59:57.475Z,7.18
2023-03-26T07:02:43.689Z,7.53
2023-03-26T07:05:31.256Z,8.68
2023-03-26T07:08:20.963Z,7.80
2023-03-26T07:11:08.683Z,8.30
2023-03-26T07:13:56.705Z,8.48
2023-03-26T07:16:43.914Z,8.13
2023-03-26T07:19:31.712Z,10.18
2023-03-26T07:22:02.277Z,9.75
2023-03-26T07:24:53.183Z,8.70
2023-03-26T07:28:24.384Z,7.75
2023-03-26T07:31:44.637Z,9.52
2023-03-26T07:35:00.502Z,8.65
2023-03-26T07:37:52.364Z,8.18
2023-03-26T07:41:20.317Z,8.40
2023-03-26T07:44:48.515Z,9.07
2023-03-26T07:47:33.880Z,8.88
2023-03-26T07:50:26.406Z,7.30
2023-03-26T07:53:26.523Z,9.05
2023-03-26T07:56:42.126Z,8.57
2023-03-26T08:00:12.911Z,8.07
2023-03-26T08:03:19.818Z,7.00
2023-03-26T08:06:24.146Z,8.35
2023-03-26T08:09:40.453Z,9.80
2023-03-26T08:13:03.567Z,9.77
2023-03-26T08:16:19.432Z,7.45
2023-03-26T08:19:34.939Z,8.55
2023-03-26T08:22:46.222Z,6.82
2023-03-26T08:25:40.906Z,7.82
2023-03-26T08:28:33.715Z,7.68
2023-03-26T08:31:03.205Z,8.15
2023-03-26T08:33:32.452Z,7.88
2023-03-26T08:36:02.101Z,7.82
2023-03-26T08:38:36.834Z,7.38
2023-03-26T08:41:17.035Z,7.78
2023-03-26T08:44:47.819Z,7.95
2023-03-26T08:48:11.791Z,8.23
2023-03-26T08:51:17.044Z,8.07
2023-03-26T08:54:42.790Z,9.05
2023-03-26T08:58:08.867Z,8.02
2023-03-26T09:01:40.902Z,7.97
2023-03-26T09:05:18.227Z,9.18
2023-03-26T09:08:54.452Z,7.88
2023-03-26T09:12:13.058Z,7.70
2023-03-26T09:15:21.352Z,8.43
2023-03-26T09:18:56.059Z,11.00
2023-03-26T09:22:18.606Z,9.23
2023-03-26T09:25:34.623Z,9.23
2023-03-26T09:29:07.746Z,10.18
2023-03-26T09:32:17.667Z,11.35
2023-03-26T09:35:14.985Z,9.75
2023-03-26T09:38:19.603Z,9.43
2023-03-26T09:41:44.732Z,9.73
2023-03-26T09:44:35.948Z,8.30
2023-03-26T09:48:15.817Z,9.77
2023-03-26T09:51:14.107Z,7.75
2023-03-26T09:54:35.505Z,6.38
2023-03-26T09:57:59.989Z,7.70
2023-03-26T10:01:40.864Z,7.88
2023-03-26T10:05:11.980Z,8.68
2023-03-26T10:08:52.261Z,8.68
2023-03-26T10:11:33.371Z,7.72
2023-03-26T10:14:48.815Z,8.45
2023-03-26T10:18:28.250Z,8.50
2023-03-26T10:21:47.099Z,8.65
2023-03-26T10:25:08.285Z,6.07
2023-03-26T10:28:19.284Z,5.47
2023-03-26T10:31:22.394Z,5.15
2023-03-26T10:34:54.345Z,4.88
2023-03-26T10:38:21.304Z,5.88
2023-03-26T10:41:25.457Z,6.32
2023-03-26T10:44:46.830Z,6.15
2023-03-26T10:47:49.247Z,4.55
2023-03-26T10:51:25.247Z,4.80
2023-03-26T10:54:44.917Z,5.00
2023-03-26T10:57:58.544Z,4.53
2023-03-26T11:00:29.258Z,4.28
2023-03-26T11:03:16.064Z,4.80
2023-03-26T11:06:17.958Z,4.68
2023-03-26T11:09:14.808Z,4.47
2023-03-26T11:12:26.275Z,4.43
2023-03-26T11:15:53.192Z,4.88
2023-03-26T11:18:52.017Z,5.32
2023-03-26T11:22:02.471Z,6.78
2023-03-26T11:25:21.245Z,6.18
2023-03-26T11:29:04.064Z,6.40
2023-03-26T11:38:42.712Z,3.25
2023-03-26T11:41:41.869Z,3.80
2023-03-26T11:44:41.118Z,3.65
2023-03-26T11:47:19.358Z,4.78
2023-03-26T11:50:02.194Z,4.72
2023-03-26T11:52:32.559Z,4.15
2023-03-26T11:55:16.348Z,4.20
2023-03-26T12:00:40.842Z,5.70
2023-03-26T12:03:24.695Z,3.85
2023-03-26T12:06:04.887Z,3.83
2023-03-26T12:08:41.765Z,3.72
2023-03-26T12:11:18.845Z,4.38
2023-03-26T12:14:01.766Z,2.95
2023-03-26T12:16:37.422Z,4.20
2023-03-26T12:19:25.305Z,4.82
2023-03-26T12:21:55.762Z,3.65
2023-03-26T12:24:42.536Z,4.28
2023-03-26T12:27:30.278Z,3.90
2023-03-26T12:30:26.247Z,4.20
2023-03-26T12:33:05.689Z,4.93
2023-03-26T12:35:42.176Z,5.10
2023-03-26T12:38:36.014Z,3.92
2023-03-26T12:44:58.950Z,3.95
2023-03-26T12:48:00.105Z,3.55
2023-03-26T12:50:38.720Z,3.70
2023-03-26T12:53:58.137Z,4.47
2023-03-26T12:57:11.349Z,3.47
2023-03-26T12:59:56.768Z,5.38
2023-03-26T13:03:04.523Z,3.70
2023-03-26T13:06:18.112Z,5.65
2023-03-26T13:09:45.036Z,3.10
2023-03-26T13:13:12.380Z,3.38
2023-03-26T13:16:33.521Z,4.75
2023-03-26T13:19:34.608Z,4.30
2023-03-26T13:22:58.336Z,4.57
2023-03-26T13:25:58.504Z,5.25
2023-03-26T13:28:59.669Z,6.60
2023-03-26T13:32:17.608Z,5.88
2023-03-26T13:36:03.357Z,5.93
2023-03-26T13:42:23.691Z,8.07
2023-03-26T13:45:41.940Z,8.57
2023-03-26T13:48:39.621Z,6.93
2023-03-26T13:52:01.427Z,9.73
2023-03-26T13:55:27.335Z,9.30
2023-03-26T13:58:10.974Z,9.85
2023-03-26T14:01:44.101Z,8.85
2023-03-26T14:04:55.742Z,7.57
2023-03-26T14:12:33.069Z,8.27
2023-03-26T14:15:22.165Z,8.02
2023-03-26T14:22:36.253Z,8.35
2023-03-26T14:25:58.810Z,6.55
2023-03-26T14:29:56.771Z,5.82
2023-03-26T14:33:47.079Z,4.80
2023-03-26T14:37:27.747Z,4.38
2023-03-26T14:40:22.402Z,4.55
2023-03-26T14:43:58.968Z,5.18
2023-03-26T14:47:33.875Z,4.60
2023-03-26T14:50:38.456Z,6.53
2023-03-26T14:53:36.331Z,5.82
2023-03-26T14:56:39.031Z,6.85
2023-03-26T14:59:39.628Z,7.28
2023-03-26T15:02:22.806Z,4.93
2023-03-26T15:05:24.461Z,6.10
2023-03-26T15:08:39.018Z,5.85
2023-03-26T15:12:12.090Z,6.93
2023-03-26T15:15:17.012Z,6.97
2023-03-26T15:18:37.363Z,7.15
2023-03-26T15:21:47.652Z,6.25
2023-03-26T15:25:11.166Z,7.65
2023-03-26T15:28:45.845Z,5.07
2023-03-26T15:32:07.050Z,4.53
2023-03-26T15:35:32.306Z,3.35
2023-03-26T15:38:23.249Z,4.65
2023-03-26T15:41:50.371Z,4.05
2023-03-26T15:45:24.730Z,4.32
2023-03-26T15:48:16.562Z,3.25
2023-03-26T15:51:18.289Z,4.95
2023-03-26T15:54:46.731Z,7.25
2023-03-26T15:58:01.903Z,3.95
2023-03-26T16:00:37.654Z,4.20
2023-03-26T16:03:11.180Z,4.65
2023-03-26T16:06:09.150Z,7.07
2023-03-26T16:09:06.520Z,3.90
2023-03-26T16:12:31.980Z,6.75
2023-03-26T16:15:25.383Z,4.05
2023-03-26T16:18:19.448Z,4.00
2023-03-26T16:21:31.337Z,6.00
2023-03-26T16:24:27.005Z,3.70
2023-03-26T16:27:34.437Z,3.75
2023-03-26T16:30:01.584Z,3.28
2023-03-26T16:33:23.454Z,3.13
2023-03-26T16:36:04.771Z,3.53
2023-03-26T16:39:00.482Z,4.72
2023-03-26T16:41:33.721Z,3.22
2023-03-26T16:44:40.223Z,5.20
2023-03-26T16:48:09.163Z,3.30
2023-03-26T16:51:23.924Z,2.97
2023-03-26T16:54:48.255Z,4.53
2023-03-26T16:57:42.457Z,4.35
2023-03-26T17:00:42.705Z,5.32
2023-03-26T17:03:46.179Z,2.72
2023-03-26T17:06:45.751Z,4.72
2023-03-26T17:10:13.140Z,3.72
2023-03-26T17:13:05.461Z,3.92
2023-03-26T17:16:21.443Z,3.10
2023-03-26T17:19:36.018Z,4.43
2023-03-26T17:23:04.996Z,3.05
2023-03-26T17:26:05.973Z,4.50
2023-03-26T17:29:27.278Z,3.80
2023-03-26T17:32:04.678Z,2.40
2023-03-26T17:34:47.530Z,3.20
2023-03-26T17:37:23.828Z,2.55
2023-03-26T17:39:51.232Z,4.07
2023-03-26T17:42:36.189Z,2.88
2023-03-26T17:45:32.255Z,3.38
2023-03-26T17:48:26.343Z,5.65
2023-03-26T17:51:57.931Z,3.50
2023-03-26T17:54:46.640Z,2.50
2023-03-26T17:57:44.128Z,3.65
2023-03-26T18:00:29.953Z,3.20
2023-03-26T18:03:20.339Z,3.33
2023-03-26T18:06:40.898Z,3.67
2023-03-26T18:09:52.461Z,3.50
2023-03-26T18:12:42.501Z,4.68
2023-03-26T18:16:03.326Z,3.00
2023-03-26T18:18:46.540Z,4.32
2023-03-26T18:21:40.156Z,2.45
2023-03-26T18:24:18.395Z,2.33
2023-03-26T18:27:11.890Z,2.58
2023-03-26T18:30:13.958Z,2.53
2023-03-26T18:33:01.441Z,2.67
2023-03-26T18:35:57.438Z,3.63
2023-03-26T18:38:35.678Z,4.65
2023-03-26T18:41:21.234Z,3.75
2023-03-26T18:43:49.600Z,2.05
2023-03-26T18:46:17.646Z,3.00
2023-03-26T18:48:47.505Z,3.97
2023-03-26T18:51:22.986Z,3.50
2023-03-26T18:54:03.326Z,5.20
2023-03-26T18:56:43.416Z,2.50
2023-03-26T18:59:32.726Z,3.08
2023-03-26T19:02:17.402Z,2.00
2023-03-26T19:04:50.282Z,2.20
2023-03-26T19:07:29.184Z,3.20
2023-03-26T19:10:00.372Z,3.20
2023-03-26T19:12:34.201Z,2.25
2023-03-26T19:15:17.076Z,2.38
2023-03-26T19:17:56.860Z,3.88
2023-03-26T19:20:47.671Z,2.78
2023-03-26T19:23:28.677Z,3.00
2023-03-26T19:26:00.156Z,2.00
2023-03-26T19:28:48.965Z,1.83
2023-03-26T19:31:16.531Z,2.95
2023-03-26T19:33:53.403Z,3.72
2023-03-26T19:36:29.828Z,2.55
2023-03-26T19:39:34.671Z,1.93
2023-03-26T19:42:10.159Z,4.10
2023-03-26T19:44:42.354Z,2.40
2023-03-26T19:47:48.587Z,2.55
2023-03-26T19:50:30.347Z,2.78
2023-03-26T19:53:38.138Z,3.05
2023-03-26T19:56:15.332Z,2.78
2023-03-26T19:58:43.608Z,3.15
2023-03-26T20:01:30.475Z,3.08
2023-03-26T20:04:06.788Z,3.92
2023-03-26T20:06:50.556Z,2.63
2023-03-26T20:09:26.812Z,2.50
2023-03-26T20:12:01.190Z,3.35
2023-03-26T20:14:32.474Z,3.35
2023-03-26T20:17:12.709Z,3.08
2023-03-26T20:19:43.573Z,3.67
2023-03-26T20:22:20.113Z,2.60
2023-03-26T20:24:51.589Z,3.17
2023-03-26T20:27:22.872Z,3.60
2023-03-26T20:30:00.152Z,2.55
2023-03-26T20:32:29.018Z,2.72
2023-03-26T20:34:57.789Z,2.72
2023-03-26T20:37:27.271Z,3.58
2023-03-26T20:39:56.243Z,2.25
2023-03-26T20:42:24.043Z,2.08
2023-03-26T20:44:59.179Z,1.98
2023-03-26T20:47:34.462Z,3.85
2023-03-26T20:50:05.427Z,2.80
2023-03-26T20:52:35.794Z,1.67
2023-03-26T20:55:06.333Z,1.98
2023-03-26T20:57:34.944Z,4.40
2023-03-26T21:00:02.641Z,3.28
2023-03-26T21:02:33.124Z,3.60
2023-03-26T21:05:03.770Z,3.72
2023-03-26T21:07:32.304Z,2.15
2023-03-26T21:10:02.644Z,2.72
2023-03-26T21:12:44.580Z,3.92
2023-03-26T21:15:22.906Z,1.98
2023-03-26T21:17:54.098Z,3.00
2023-03-26T21:20:25.376Z,2.60
2023-03-26T21:27:34.436Z,2.60
2023-03-26T21:30:16.968Z,4.88
2023-03-26T21:32:47.452Z,3.20
2023-03-26T21:35:18.465Z,2.47
2023-03-26T21:37:48.806Z,3.08
2023-03-26T21:40:21.574Z,3.10
2023-03-26T21:43:12.723Z,2.67
2023-03-26T21:45:41.563Z,2.78
2023-03-26T21:48:11.080Z,3.40
2023-03-26T21:50:40.629Z,2.60
2023-03-26T21:53:16.304Z,2.63
2023-03-26T21:56:29.250Z,3.35
2023-03-26T22:00:07.166Z,3.00
2023-03-26T22:03:27.388Z,2.28
2023-03-26T22:06:17.752Z,3.88
2023-03-26T22:08:45.645Z,3.08
2023-03-26T22:11:14.219Z,4.47
2023-03-26T22:13:54.459Z,2.97
2023-03-26T22:16:27.601Z,4.03
2023-03-26T22:18:58.128Z,4.35
2023-03-26T22:21:28.331Z,3.63
2023-03-26T22:23:57.289Z,3.42
2023-03-26T22:26:27.029Z,3.95
2023-03-26T22:28:54.660Z,3.38
2023-03-26T22:31:26.588Z,3.95
2023-03-26T22:33:58.656Z,3.83
2023-03-26T22:36:27.521Z,3.25
2023-03-26T22:38:56.712Z,3.45
2023-03-26T22:41:25.034Z,2.92
2023-03-26T22:44:16.884Z,3.60
2023-03-26T22:46:53.317Z,3.08
2023-03-26T22:49:22.267Z,4.60
2023-03-26T22:51:50.369Z,3.03
2023-03-26T22:54:21.417Z,3.67
2023-03-26T22:56:49.764Z,3.90
2023-03-26T22:59:25.292Z,4.32
2023-03-26T23:01:53.380Z,2.95
2023-03-26T23:04:30.317Z,2.90
2023-03-26T23:07:04.185Z,3.03
2023-03-26T23:09:32.499Z,2.72
2023-03-26T23:12:04.228Z,2.70
2023-03-26T23:14:33.036Z,3.20
2023-03-26T23:17:01.578Z,2.90
2023-03-26T23:19:30.374Z,2.95
2023-03-26T23:21:58.841Z,2.95
2023-03-26T23:24:27.643Z,3.90
2023-03-26T23:26:55.741Z,5.38
2023-03-26T23:29:23.586Z,3.35
2023-03-26T23:31:59.022Z,3.67
2023-03-26T23:34:27.444Z,3.28
2023-03-26T23:36:58.043Z,3.17
2023-03-26T23:39:30.747Z,3.33
2023-03-26T23:42:03.448Z,3.67
2023-03-26T23:44:32.279Z,3.60
2023-03-26T23:47:00.536Z,2.92
2023-03-26T23:49:28.006Z,3.17
2023-03-26T23:51:55.619Z,3.22
2023-03-26T23:54:25.889Z,3.28
2023-03-26T23:56:55.036Z,3.00
2023-03-26T23:59:23.169Z,3.55
